sensor_id;sensor_type;location;lat;lon;timestamp;pressure;altitude;pressure_sealevel;temperature;humidity
19845;BME280;10083;51.038;7.012;2022-09-09T00:01:48;90944.66;;;18.31;100.00
19845;BME280;10083;51.038;7.012;2022-09-09T00:04:25;90880.94;;;18.42;100.00
19845;BME280;10083;51.038;7.012;2022-09-09T00:07:00;90919.38;;;18.27;100.00
19845;BME280;10083;51.038;7.012;2022-09-09T00:09:34;90879.75;;;18.31;100.00
19845;BME280;10083;51.038;7.012;2022-09-09T00:12:10;90857.88;;;18.36;100.00
19845;BME280;10083;51.038;7.012;2022-09-09T00:14:47;90860.81;;;18.31;100.00
19845;BME280;10083;51.038;7.012;2022-09-09T00:17:22;90857.63;;;18.29;100.00
19845;BME280;10083;51.038;7.012;2022-09-09T00:19:57;90876.59;;;18.21;100.00
19845;BME280;10083;51.038;7.012;2022-09-09T00:22:29;90881.53;;;18.19;100.00
19845;BME280;10083;51.038;7.012;2022-09-09T00:25:02;90872.00;;;18.21;100.00
19845;BME280;10083;51.038;7.012;2022-09-09T00:27:40;90909.75;;;18.09;100.00
19845;BME280;10083;51.038;7.012;2022-09-09T00:30:15;90890.66;;;18.14;100.00
19845;BME280;10083;51.038;7.012;2022-09-09T00:32:49;90898.94;;;18.09;100.00
19845;BME280;10083;51.038;7.012;2022-09-09T00:35:22;90883.91;;;18.20;100.00
19845;BME280;10083;51.038;7.012;2022-09-09T00:37:53;90877.72;;;18.20;100.00
19845;BME280;10083;51.038;7.012;2022-09-09T00:40:30;90896.06;;;18.14;100.00
19845;BME280;10083;51.038;7.012;2022-09-09T00:43:16;90993.13;;;17.90;100.00
19845;BME280;10083;51.038;7.012;2022-09-09T00:46:10;90997.09;;;18.01;100.00
19845;BME280;10083;51.038;7.012;2022-09-09T00:48:48;91028.59;;;18.05;100.00
19845;BME280;10083;51.038;7.012;2022-09-09T00:51:26;91072.97;;;17.96;100.00
19845;BME280;10083;51.038;7.012;2022-09-09T00:54:12;91061.34;;;18.04;100.00
19845;BME280;10083;51.038;7.012;2022-09-09T00:56:51;91046.34;;;18.15;100.00
19845;BME280;10083;51.038;7.012;2022-09-09T00:59:28;91091.72;;;18.01;100.00
19845;BME280;10083;51.038;7.012;2022-09-09T01:02:03;91111.28;;;17.98;100.00
19845;BME280;10083;51.038;7.012;2022-09-09T01:04:42;91100.94;;;18.08;100.00
19845;BME280;10083;51.038;7.012;2022-09-09T01:07:15;91133.84;;;18.02;100.00
19845;BME280;10083;51.038;7.012;2022-09-09T01:09:51;91179.50;;;17.86;100.00
19845;BME280;10083;51.038;7.012;2022-09-09T01:12:30;91241.16;;;17.76;100.00
19845;BME280;10083;51.038;7.012;2022-09-09T01:15:08;91262.78;;;17.76;100.00
19845;BME280;10083;51.038;7.012;2022-09-09T01:17:54;91253.13;;;17.83;100.00
19845;BME280;10083;51.038;7.012;2022-09-09T01:20:31;91272.50;;;17.77;100.00
19845;BME280;10083;51.038;7.012;2022-09-09T01:23:19;91266.63;;;17.83;100.00
19845;BME280;10083;51.038;7.012;2022-09-09T01:26:21;91247.25;;;17.90;100.00
19845;BME280;10083;51.038;7.012;2022-09-09T01:28:50;91235.03;;;17.92;100.00
19845;BME280;10083;51.038;7.012;2022-09-09T01:31:22;91242.47;;;17.87;100.00
19845;BME280;10083;51.038;7.012;2022-09-09T01:33:52;91191.28;;;17.99;100.00
19845;BME280;10083;51.038;7.012;2022-09-09T01:36:29;91229.25;;;17.85;100.00
19845;BME280;10083;51.038;7.012;2022-09-09T01:38:59;91260.06;;;17.76;100.00
19845;BME280;10083;51.038;7.012;2022-09-09T01:41:31;91275.66;;;17.70;100.00
19845;BME280;10083;51.038;7.012;2022-09-09T01:44:09;91283.91;;;17.65;100.00
19845;BME280;10083;51.038;7.012;2022-09-09T01:46:42;91286.78;;;17.69;100.00
19845;BME280;10083;51.038;7.012;2022-09-09T01:49:16;91321.38;;;17.58;100.00
19845;BME280;10083;51.038;7.012;2022-09-09T01:51:45;91330.78;;;17.60;100.00
19845;BME280;10083;51.038;7.012;2022-09-09T01:54:15;91359.81;;;17.55;100.00
19845;BME280;10083;51.038;7.012;2022-09-09T01:56:54;91376.81;;;17.55;100.00
19845;BME280;10083;51.038;7.012;2022-09-09T01:59:41;91392.94;;;17.60;100.00
19845;BME280;10083;51.038;7.012;2022-09-09T02:02:18;91395.50;;;17.66;100.00
19845;BME280;10083;51.038;7.012;2022-09-09T02:05:02;91428.06;;;17.60;100.00
19845;BME280;10083;51.038;7.012;2022-09-09T02:07:38;91418.41;;;17.68;100.00
19845;BME280;10083;51.038;7.012;2022-09-09T02:10:17;91398.91;;;17.80;100.00
19845;BME280;10083;51.038;7.012;2022-09-09T02:13:02;91376.53;;;17.88;100.00
19845;BME280;10083;51.038;7.012;2022-09-09T02:15:42;91115.34;;;18.56;100.00
19845;BME280;10083;51.038;7.012;2022-09-09T02:18:19;90990.34;;;18.62;100.00
19845;BME280;10083;51.038;7.012;2022-09-09T02:20:50;91020.81;;;18.42;100.00
19845;BME280;10083;51.038;7.012;2022-09-09T02:23:19;91096.94;;;18.15;100.00
19845;BME280;10083;51.038;7.012;2022-09-09T02:25:53;91176.81;;;17.95;100.00
19845;BME280;10083;51.038;7.012;2022-09-09T02:28:28;91267.72;;;17.74;100.00
19845;BME280;10083;51.038;7.012;2022-09-09T02:30:57;91292.34;;;17.72;100.00
19845;BME280;10083;51.038;7.012;2022-09-09T02:33:36;91299.88;;;17.84;100.00
19845;BME280;10083;51.038;7.012;2022-09-09T02:36:07;91351.00;;;17.72;100.00
19845;BME280;10083;51.038;7.012;2022-09-09T02:38:38;91375.50;;;17.75;100.00
19845;BME280;10083;51.038;7.012;2022-09-09T02:41:11;91367.47;;;17.84;100.00
19845;BME280;10083;51.038;7.012;2022-09-09T02:43:41;91361.59;;;17.90;100.00
19845;BME280;10083;51.038;7.012;2022-09-09T02:46:34;91397.50;;;17.82;100.00
19845;BME280;10083;51.038;7.012;2022-09-09T02:49:09;91419.53;;;17.76;100.00
19845;BME280;10083;51.038;7.012;2022-09-09T02:51:47;91443.75;;;17.81;100.00
19845;BME280;10083;51.038;7.012;2022-09-09T02:54:26;91496.59;;;17.65;100.00
19845;BME280;10083;51.038;7.012;2022-09-09T02:57:02;91480.91;;;17.75;100.00
19845;BME280;10083;51.038;7.012;2022-09-09T02:59:37;91481.00;;;17.84;100.00
19845;BME280;10083;51.038;7.012;2022-09-09T03:02:05;91540.81;;;17.69;100.00
19845;BME280;10083;51.038;7.012;2022-09-09T03:04:34;91553.53;;;17.68;100.00
19845;BME280;10083;51.038;7.012;2022-09-09T03:07:06;91466.09;;;17.95;100.00
19845;BME280;10083;51.038;7.012;2022-09-09T03:09:35;91532.72;;;17.69;100.00
19845;BME280;10083;51.038;7.012;2022-09-09T03:12:02;91522.63;;;17.83;100.00
19845;BME280;10083;51.038;7.012;2022-09-09T03:14:32;91532.47;;;17.79;100.00
19845;BME280;10083;51.038;7.012;2022-09-09T03:17:02;91558.53;;;17.75;100.00
19845;BME280;10083;51.038;7.012;2022-09-09T03:19:35;91597.38;;;17.65;100.00
19845;BME280;10083;51.038;7.012;2022-09-09T03:22:05;91578.34;;;17.70;100.00
19845;BME280;10083;51.038;7.012;2022-09-09T03:24:35;91624.31;;;17.56;100.00
19845;BME280;10083;51.038;7.012;2022-09-09T03:27:04;91632.00;;;17.63;100.00
19845;BME280;10083;51.038;7.012;2022-09-09T03:29:32;91639.31;;;17.62;100.00
19845;BME280;10083;51.038;7.012;2022-09-09T03:32:05;91638.63;;;17.71;100.00
19845;BME280;10083;51.038;7.012;2022-09-09T03:34:32;91653.22;;;17.70;100.00
19845;BME280;10083;51.038;7.012;2022-09-09T03:37:00;91634.38;;;17.78;100.00
19845;BME280;10083;51.038;7.012;2022-09-09T03:39:28;91660.25;;;17.71;100.00
19845;BME280;10083;51.038;7.012;2022-09-09T03:41:55;91699.56;;;17.63;100.00
19845;BME280;10083;51.038;7.012;2022-09-09T03:44:23;91706.59;;;17.64;100.00
19845;BME280;10083;51.038;7.012;2022-09-09T03:46:50;91731.72;;;17.65;100.00
19845;BME280;10083;51.038;7.012;2022-09-09T03:49:20;91714.31;;;17.71;100.00
19845;BME280;10083;51.038;7.012;2022-09-09T03:51:47;91741.53;;;17.60;100.00
19845;BME280;10083;51.038;7.012;2022-09-09T03:54:14;91762.13;;;17.56;100.00
19845;BME280;10083;51.038;7.012;2022-09-09T03:56:43;91779.72;;;17.54;100.00
19845;BME280;10083;51.038;7.012;2022-09-09T03:59:12;91770.97;;;17.62;100.00
19845;BME280;10083;51.038;7.012;2022-09-09T04:01:41;91793.16;;;17.59;100.00
19845;BME280;10083;51.038;7.012;2022-09-09T04:04:08;91793.44;;;17.57;100.00
19845;BME280;10083;51.038;7.012;2022-09-09T04:06:39;91801.28;;;17.59;100.00
19845;BME280;10083;51.038;7.012;2022-09-09T04:09:07;91840.84;;;17.50;100.00
19845;BME280;10083;51.038;7.012;2022-09-09T04:11:34;91803.78;;;17.69;100.00
19845;BME280;10083;51.038;7.012;2022-09-09T04:14:03;91818.81;;;17.61;100.00
19845;BME280;10083;51.038;7.012;2022-09-09T04:16:31;91799.47;;;17.68;100.00
19845;BME280;10083;51.038;7.012;2022-09-09T04:18:59;91816.59;;;17.63;100.00
19845;BME280;10083;51.038;7.012;2022-09-09T04:21:26;91808.47;;;17.63;100.00
19845;BME280;10083;51.038;7.012;2022-09-09T04:23:56;91775.75;;;17.79;100.00
19845;BME280;10083;51.038;7.012;2022-09-09T04:26:24;91769.53;;;17.78;100.00
19845;BME280;10083;51.038;7.012;2022-09-09T04:28:52;91792.69;;;17.71;100.00
19845;BME280;10083;51.038;7.012;2022-09-09T04:31:22;91662.00;;;18.11;100.00
19845;BME280;10083;51.038;7.012;2022-09-09T04:33:53;91687.63;;;17.91;100.00
19845;BME280;10083;51.038;7.012;2022-09-09T04:36:21;91734.50;;;17.73;100.00
19845;BME280;10083;51.038;7.012;2022-09-09T04:38:50;91770.03;;;17.67;100.00
19845;BME280;10083;51.038;7.012;2022-09-09T04:41:20;91777.03;;;17.68;100.00
19845;BME280;10083;51.038;7.012;2022-09-09T04:43:50;91776.16;;;17.72;100.00
19845;BME280;10083;51.038;7.012;2022-09-09T04:46:20;91685.97;;;18.04;100.00
19845;BME280;10083;51.038;7.012;2022-09-09T04:48:48;91732.41;;;17.84;100.00
19845;BME280;10083;51.038;7.012;2022-09-09T04:51:17;91785.25;;;17.62;100.00
19845;BME280;10083;51.038;7.012;2022-09-09T04:53:47;91773.44;;;17.72;100.00
19845;BME280;10083;51.038;7.012;2022-09-09T04:56:17;91805.78;;;17.63;100.00
19845;BME280;10083;51.038;7.012;2022-09-09T04:58:53;91761.13;;;17.80;100.00
19845;BME280;10083;51.038;7.012;2022-09-09T05:01:23;91813.09;;;17.63;100.00
19845;BME280;10083;51.038;7.012;2022-09-09T05:03:52;91809.00;;;17.66;100.00
19845;BME280;10083;51.038;7.012;2022-09-09T05:06:22;91813.28;;;17.67;100.00
19845;BME280;10083;51.038;7.012;2022-09-09T05:08:54;91763.81;;;17.80;100.00
19845;BME280;10083;51.038;7.012;2022-09-09T05:11:26;91744.31;;;17.83;100.00
19845;BME280;10083;51.038;7.012;2022-09-09T05:14:03;91642.91;;;18.07;100.00
19845;BME280;10083;51.038;7.012;2022-09-09T05:16:31;91643.63;;;17.99;100.00
19845;BME280;10083;51.038;7.012;2022-09-09T05:19:00;91671.31;;;17.83;100.00
19845;BME280;10083;51.038;7.012;2022-09-09T05:21:37;91701.47;;;17.76;100.00
19845;BME280;10083;51.038;7.012;2022-09-09T05:24:07;91739.09;;;17.73;100.00
19845;BME280;10083;51.038;7.012;2022-09-09T05:26:35;91790.38;;;17.78;100.00
19845;BME280;10083;51.038;7.012;2022-09-09T05:29:04;91876.84;;;17.64;100.00
19845;BME280;10083;51.038;7.012;2022-09-09T05:31:32;91924.22;;;17.75;100.00
19845;BME280;10083;51.038;7.012;2022-09-09T05:34:02;92033.81;;;17.49;100.00
19845;BME280;10083;51.038;7.012;2022-09-09T05:36:30;92052.81;;;17.62;100.00
19845;BME280;10083;51.038;7.012;2022-09-09T05:38:59;92141.78;;;17.78;100.00
19845;BME280;10083;51.038;7.012;2022-09-09T05:41:28;92276.75;;;17.45;100.00
19845;BME280;10083;51.038;7.012;2022-09-09T05:43:59;92298.22;;;17.66;100.00
19845;BME280;10083;51.038;7.012;2022-09-09T05:46:28;92333.69;;;17.54;100.00
19845;BME280;10083;51.038;7.012;2022-09-09T05:48:56;92408.75;;;17.33;100.00
19845;BME280;10083;51.038;7.012;2022-09-09T05:51:29;92492.50;;;17.33;100.00
19845;BME280;10083;51.038;7.012;2022-09-09T05:53:58;92598.47;;;17.25;100.00
19845;BME280;10083;51.038;7.012;2022-09-09T05:56:29;92690.84;;;17.27;100.00
19845;BME280;10083;51.038;7.012;2022-09-09T05:59:00;92753.47;;;17.39;100.00
19845;BME280;10083;51.038;7.012;2022-09-09T06:01:31;92800.44;;;17.53;100.00
19845;BME280;10083;51.038;7.012;2022-09-09T06:04:00;92836.16;;;17.60;100.00
19845;BME280;10083;51.038;7.012;2022-09-09T06:06:31;92865.34;;;17.63;100.00
19845;BME280;10083;51.038;7.012;2022-09-09T06:09:03;92944.25;;;17.45;100.00
19845;BME280;10083;51.038;7.012;2022-09-09T06:11:35;92986.41;;;17.46;100.00
19845;BME280;10083;51.038;7.012;2022-09-09T06:14:03;92976.97;;;17.69;100.00
19845;BME280;10083;51.038;7.012;2022-09-09T06:16:34;92950.16;;;17.93;100.00
19845;BME280;10083;51.038;7.012;2022-09-09T06:19:05;92993.22;;;17.79;100.00
19845;BME280;10083;51.038;7.012;2022-09-09T06:21:34;92962.63;;;17.94;100.00
19845;BME280;10083;51.038;7.012;2022-09-09T06:24:05;92963.72;;;17.88;100.00
19845;BME280;10083;51.038;7.012;2022-09-09T06:26:34;92964.25;;;17.90;100.00
19845;BME280;10083;51.038;7.012;2022-09-09T06:29:03;92968.06;;;17.84;100.00
19845;BME280;10083;51.038;7.012;2022-09-09T06:31:33;92940.16;;;17.93;100.00
19845;BME280;10083;51.038;7.012;2022-09-09T06:34:13;92903.59;;;18.11;100.00
19845;BME280;10083;51.038;7.012;2022-09-09T06:36:44;92911.22;;;18.04;100.00
19845;BME280;10083;51.038;7.012;2022-09-09T06:39:12;92947.50;;;17.88;100.00
19845;BME280;10083;51.038;7.012;2022-09-09T06:41:41;92949.13;;;17.84;100.00
19845;BME280;10083;51.038;7.012;2022-09-09T06:44:24;92907.94;;;18.07;100.00
19845;BME280;10083;51.038;7.012;2022-09-09T06:46:54;92981.56;;;17.79;100.00
19845;BME280;10083;51.038;7.012;2022-09-09T06:49:22;92950.16;;;17.98;100.00
19845;BME280;10083;51.038;7.012;2022-09-09T06:51:49;92922.53;;;18.06;100.00
19845;BME280;10083;51.038;7.012;2022-09-09T06:54:18;92938.00;;;18.05;100.00
19845;BME280;10083;51.038;7.012;2022-09-09T06:56:47;92927.16;;;18.05;100.00
19845;BME280;10083;51.038;7.012;2022-09-09T06:59:21;92857.25;;;18.28;100.00
19845;BME280;10083;51.038;7.012;2022-09-09T07:01:49;92806.13;;;18.31;100.00
19845;BME280;10083;51.038;7.012;2022-09-09T07:04:19;92679.31;;;18.48;100.00
19845;BME280;10083;51.038;7.012;2022-09-09T07:06:47;92595.41;;;18.48;100.00
19845;BME280;10083;51.038;7.012;2022-09-09T07:09:18;92422.91;;;18.78;100.00
19845;BME280;10083;51.038;7.012;2022-09-09T07:11:50;92262.38;;;18.91;100.00
19845;BME280;10083;51.038;7.012;2022-09-09T07:14:21;92087.59;;;18.93;100.00
19845;BME280;10083;51.038;7.012;2022-09-09T07:16:53;91875.69;;;19.10;100.00
19845;BME280;10083;51.038;7.012;2022-09-09T07:19:23;91676.56;;;19.21;100.00
19845;BME280;10083;51.038;7.012;2022-09-09T07:21:55;91443.09;;;19.45;100.00
19845;BME280;10083;51.038;7.012;2022-09-09T07:24:24;91327.53;;;19.23;100.00
19845;BME280;10083;51.038;7.012;2022-09-09T07:26:55;91253.91;;;19.21;100.00
19845;BME280;10083;51.038;7.012;2022-09-09T07:29:23;91212.34;;;19.17;100.00
19845;BME280;10083;51.038;7.012;2022-09-09T07:31:52;91154.44;;;19.30;100.00
19845;BME280;10083;51.038;7.012;2022-09-09T07:34:26;91190.34;;;19.10;100.00
19845;BME280;10083;51.038;7.012;2022-09-09T07:36:53;91217.31;;;18.98;100.00
19845;BME280;10083;51.038;7.012;2022-09-09T07:39:22;91188.28;;;19.16;100.00
19845;BME280;10083;51.038;7.012;2022-09-09T07:41:53;91159.84;;;19.30;100.00
19845;BME280;10083;51.038;7.012;2022-09-09T07:44:24;91141.16;;;19.46;100.00
19845;BME280;10083;51.038;7.012;2022-09-09T07:47:05;91109.44;;;19.67;100.00
19845;BME280;10083;51.038;7.012;2022-09-09T07:49:38;91149.00;;;19.68;100.00
19845;BME280;10083;51.038;7.012;2022-09-09T07:52:08;91180.41;;;19.69;100.00
19845;BME280;10083;51.038;7.012;2022-09-09T07:54:39;91224.72;;;19.73;100.00
19845;BME280;10083;51.038;7.012;2022-09-09T07:57:12;91265.97;;;19.88;100.00
19845;BME280;10083;51.038;7.012;2022-09-09T07:59:41;91378.59;;;19.85;100.00
19845;BME280;10083;51.038;7.012;2022-09-09T08:02:13;91482.16;;;19.87;100.00
19845;BME280;10083;51.038;7.012;2022-09-09T08:04:45;91537.19;;;19.96;100.00
19845;BME280;10083;51.038;7.012;2022-09-09T08:07:14;91627.00;;;19.86;100.00
19845;BME280;10083;51.038;7.012;2022-09-09T08:09:47;91667.22;;;19.93;100.00
19845;BME280;10083;51.038;7.012;2022-09-09T08:12:20;91779.34;;;19.79;100.00
19845;BME280;10083;51.038;7.012;2022-09-09T08:14:50;91849.38;;;19.77;100.00
19845;BME280;10083;51.038;7.012;2022-09-09T08:17:25;91923.09;;;19.79;100.00
19845;BME280;10083;51.038;7.012;2022-09-09T08:19:55;92036.78;;;19.76;100.00
19845;BME280;10083;51.038;7.012;2022-09-09T08:22:29;92094.16;;;19.83;100.00
19845;BME280;10083;51.038;7.012;2022-09-09T08:24:56;92167.69;;;19.81;100.00
19845;BME280;10083;51.038;7.012;2022-09-09T08:27:24;92234.19;;;19.93;100.00
19845;BME280;10083;51.038;7.012;2022-09-09T08:29:52;92359.56;;;20.03;100.00
19845;BME280;10083;51.038;7.012;2022-09-09T08:32:19;92491.34;;;20.09;100.00
19845;BME280;10083;51.038;7.012;2022-09-09T08:34:48;92603.44;;;20.10;100.00
19845;BME280;10083;51.038;7.012;2022-09-09T08:37:22;92724.09;;;20.17;100.00
19845;BME280;10083;51.038;7.012;2022-09-09T08:39:50;92815.44;;;20.27;100.00
19845;BME280;10083;51.038;7.012;2022-09-09T08:42:26;92882.38;;;20.37;100.00
19845;BME280;10083;51.038;7.012;2022-09-09T08:48:06;93097.19;;;20.64;100.00
19845;BME280;10083;51.038;7.012;2022-09-09T08:50:36;93285.50;;;20.59;100.00
19845;BME280;10083;51.038;7.012;2022-09-09T08:53:18;93410.44;;;20.59;100.00
19845;BME280;10083;51.038;7.012;2022-09-09T08:55:50;93505.25;;;20.66;100.00
19845;BME280;10083;51.038;7.012;2022-09-09T08:58:26;93630.50;;;20.74;100.00
19845;BME280;10083;51.038;7.012;2022-09-09T09:01:17;93784.56;;;20.64;100.00
19845;BME280;10083;51.038;7.012;2022-09-09T09:03:55;93929.16;;;20.71;100.00
19845;BME280;10083;51.038;7.012;2022-09-09T09:06:39;94063.41;;;20.80;100.00
19845;BME280;10083;51.038;7.012;2022-09-09T09:09:20;94169.53;;;20.95;100.00
19845;BME280;10083;51.038;7.012;2022-09-09T09:11:51;94677.19;;;20.61;100.00
19845;BME280;10083;51.038;7.012;2022-09-09T09:14:22;94982.47;;;20.67;100.00
19845;BME280;10083;51.038;7.012;2022-09-09T09:16:53;95130.78;;;20.86;100.00
19845;BME280;10083;51.038;7.012;2022-09-09T09:19:20;95307.91;;;21.13;100.00
19845;BME280;10083;51.038;7.012;2022-09-09T09:21:54;95563.66;;;21.25;100.00
19845;BME280;10083;51.038;7.012;2022-09-09T09:24:33;95854.50;;;21.14;100.00
19845;BME280;10083;51.038;7.012;2022-09-09T09:27:12;96047.22;;;21.11;100.00
19845;BME280;10083;51.038;7.012;2022-09-09T09:29:43;96148.38;;;21.01;100.00
19845;BME280;10083;51.038;7.012;2022-09-09T09:32:15;96212.38;;;20.97;100.00
19845;BME280;10083;51.038;7.012;2022-09-09T09:34:48;96235.25;;;20.83;100.00
19845;BME280;10083;51.038;7.012;2022-09-09T09:37:25;96221.44;;;20.78;100.00
19845;BME280;10083;51.038;7.012;2022-09-09T09:40:09;96215.38;;;20.76;100.00
19845;BME280;10083;51.038;7.012;2022-09-09T09:42:38;96203.25;;;20.72;100.00
19845;BME280;10083;51.038;7.012;2022-09-09T09:45:18;96126.72;;;20.68;100.00
19845;BME280;10083;51.038;7.012;2022-09-09T09:47:58;96074.84;;;20.63;100.00
19845;BME280;10083;51.038;7.012;2022-09-09T09:50:25;96054.13;;;20.69;100.00
19845;BME280;10083;51.038;7.012;2022-09-09T09:52:57;96076.09;;;20.67;100.00
19845;BME280;10083;51.038;7.012;2022-09-09T09:55:30;96118.09;;;20.78;100.00
19845;BME280;10083;51.038;7.012;2022-09-09T09:58:03;96199.66;;;20.85;100.00
19845;BME280;10083;51.038;7.012;2022-09-09T10:00:32;96174.28;;;21.17;100.00
19845;BME280;10083;51.038;7.012;2022-09-09T10:03:21;96206.47;;;21.33;100.00
19845;BME280;10083;51.038;7.012;2022-09-09T10:05:50;96284.22;;;21.67;100.00
19845;BME280;10083;51.038;7.012;2022-09-09T10:08:18;96391.88;;;21.76;100.00
19845;BME280;10083;51.038;7.012;2022-09-09T10:10:54;96575.84;;;21.92;100.00
19845;BME280;10083;51.038;7.012;2022-09-09T10:13:32;96575.25;;;22.03;100.00
19845;BME280;10083;51.038;7.012;2022-09-09T10:16:13;96644.22;;;22.17;100.00
19845;BME280;10083;51.038;7.012;2022-09-09T10:18:51;96684.06;;;22.18;100.00
19845;BME280;10083;51.038;7.012;2022-09-09T10:21:44;96728.06;;;22.01;100.00
19845;BME280;10083;51.038;7.012;2022-09-09T10:27:17;96750.91;;;22.07;100.00
19845;BME280;10083;51.038;7.012;2022-09-09T10:30:02;96813.84;;;21.71;100.00
19845;BME280;10083;51.038;7.012;2022-09-09T10:32:38;96804.16;;;21.96;100.00
19845;BME280;10083;51.038;7.012;2022-09-09T10:35:13;96841.88;;;22.99;100.00
19845;BME280;10083;51.038;7.012;2022-09-09T10:38:03;96967.25;;;23.01;100.00
19845;BME280;10083;51.038;7.012;2022-09-09T10:40:33;97121.22;;;22.44;100.00
19845;BME280;10083;51.038;7.012;2022-09-09T10:43:18;97200.56;;;22.22;100.00
19845;BME280;10083;51.038;7.012;2022-09-09T10:46:00;97200.16;;;21.82;100.00
19845;BME280;10083;51.038;7.012;2022-09-09T10:48:40;97204.34;;;21.63;100.00
19845;BME280;10083;51.038;7.012;2022-09-09T10:51:22;97111.81;;;21.70;100.00
19845;BME280;10083;51.038;7.012;2022-09-09T10:53:58;97027.22;;;21.78;100.00
19845;BME280;10083;51.038;7.012;2022-09-09T10:56:30;97105.53;;;22.19;100.00
19845;BME280;10083;51.038;7.012;2022-09-09T10:59:06;97194.75;;;22.59;100.00
19845;BME280;10083;51.038;7.012;2022-09-09T11:01:40;97232.44;;;22.70;100.00
19845;BME280;10083;51.038;7.012;2022-09-09T11:04:15;97190.03;;;23.50;100.00
19845;BME280;10083;51.038;7.012;2022-09-09T11:06:46;97572.53;;;24.26;100.00
19845;BME280;10083;51.038;7.012;2022-09-09T11:09:21;97979.88;;;24.21;100.00
19845;BME280;10083;51.038;7.012;2022-09-09T11:11:52;98277.56;;;23.64;100.00
19845;BME280;10083;51.038;7.012;2022-09-09T11:14:28;98441.63;;;23.24;100.00
19845;BME280;10083;51.038;7.012;2022-09-09T11:16:58;98521.22;;;24.55;100.00
19845;BME280;10083;51.038;7.012;2022-09-09T11:19:31;98697.00;;;24.18;100.00
19845;BME280;10083;51.038;7.012;2022-09-09T11:22:13;98876.44;;;23.87;100.00
19845;BME280;10083;51.038;7.012;2022-09-09T11:24:45;98946.03;;;23.59;100.00
19845;BME280;10083;51.038;7.012;2022-09-09T11:27:18;98996.81;;;23.18;100.00
19845;BME280;10083;51.038;7.012;2022-09-09T11:30:11;99004.09;;;22.56;100.00
19845;BME280;10083;51.038;7.012;2022-09-09T11:32:59;98993.53;;;22.26;100.00
19845;BME280;10083;51.038;7.012;2022-09-09T11:35:38;98961.16;;;22.13;100.00
19845;BME280;10083;51.038;7.012;2022-09-09T11:38:19;98981.38;;;21.83;100.00
19845;BME280;10083;51.038;7.012;2022-09-09T11:40:55;98975.47;;;22.15;100.00
19845;BME280;10083;51.038;7.012;2022-09-09T11:43:28;98995.75;;;22.13;100.00
19845;BME280;10083;51.038;7.012;2022-09-09T11:46:00;99040.06;;;22.15;100.00
19845;BME280;10083;51.038;7.012;2022-09-09T11:48:32;99062.41;;;21.91;100.00
19845;BME280;10083;51.038;7.012;2022-09-09T11:51:03;99055.09;;;21.91;100.00
19845;BME280;10083;51.038;7.012;2022-09-09T11:53:33;99064.13;;;21.92;100.00
19845;BME280;10083;51.038;7.012;2022-09-09T11:56:13;99076.03;;;22.00;100.00
19845;BME280;10083;51.038;7.012;2022-09-09T11:58:55;99096.28;;;21.98;100.00
19845;BME280;10083;51.038;7.012;2022-09-09T12:01:36;99124.00;;;21.74;100.00
19845;BME280;10083;51.038;7.012;2022-09-09T12:04:31;99075.75;;;21.94;100.00
19845;BME280;10083;51.038;7.012;2022-09-09T12:07:02;99071.22;;;21.75;100.00
19845;BME280;10083;51.038;7.012;2022-09-09T12:09:43;99084.56;;;21.78;100.00
19845;BME280;10083;51.038;7.012;2022-09-09T12:12:28;99026.97;;;21.91;100.00
19845;BME280;10083;51.038;7.012;2022-09-09T12:15:23;99097.31;;;21.78;100.00
19845;BME280;10083;51.038;7.012;2022-09-09T12:17:56;99056.69;;;21.84;100.00
19845;BME280;10083;51.038;7.012;2022-09-09T12:20:31;99084.72;;;21.67;100.00
19845;BME280;10083;51.038;7.012;2022-09-09T12:23:30;99069.50;;;21.74;100.00
19845;BME280;10083;51.038;7.012;2022-09-09T12:26:06;99088.72;;;21.63;100.00
19845;BME280;10083;51.038;7.012;2022-09-09T12:28:52;99088.63;;;21.45;100.00
19845;BME280;10083;51.038;7.012;2022-09-09T12:31:25;99073.13;;;21.55;100.00
19845;BME280;10083;51.038;7.012;2022-09-09T12:34:04;99082.25;;;21.83;100.00
19845;BME280;10083;51.038;7.012;2022-09-09T12:36:37;99112.72;;;22.16;100.00
19845;BME280;10083;51.038;7.012;2022-09-09T12:39:14;99137.09;;;22.27;100.00
19845;BME280;10083;51.038;7.012;2022-09-09T12:41:56;99152.94;;;22.14;100.00
19845;BME280;10083;51.038;7.012;2022-09-09T12:44:24;99175.84;;;22.21;100.00
19845;BME280;10083;51.038;7.012;2022-09-09T12:46:55;99190.13;;;21.95;100.00
19845;BME280;10083;51.038;7.012;2022-09-09T12:49:30;99177.78;;;21.82;100.00
19845;BME280;10083;51.038;7.012;2022-09-09T12:52:02;99156.72;;;21.74;100.00
19845;BME280;10083;51.038;7.012;2022-09-09T12:54:31;99164.47;;;21.50;100.00
19845;BME280;10083;51.038;7.012;2022-09-09T12:57:00;99146.56;;;21.38;100.00
19845;BME280;10083;51.038;7.012;2022-09-09T12:59:36;99115.59;;;21.39;100.00
19845;BME280;10083;51.038;7.012;2022-09-09T13:02:19;99049.22;;;21.40;100.00
19845;BME280;10083;51.038;7.012;2022-09-09T13:04:48;98651.38;;;20.79;100.00
19845;BME280;10083;51.038;7.012;2022-09-09T13:07:16;97976.06;;;21.72;100.00
19845;BME280;10083;51.038;7.012;2022-09-09T13:09:43;97902.81;;;22.16;100.00
19845;BME280;10083;51.038;7.012;2022-09-09T13:12:15;97962.59;;;23.25;100.00
19845;BME280;10083;51.038;7.012;2022-09-09T13:14:45;98316.91;;;24.17;100.00
19845;BME280;10083;51.038;7.012;2022-09-09T13:17:21;98282.28;;;23.78;100.00
19845;BME280;10083;51.038;7.012;2022-09-09T13:19:51;98372.69;;;23.69;100.00
19845;BME280;10083;51.038;7.012;2022-09-09T13:22:31;98416.56;;;23.04;100.00
19845;BME280;10083;51.038;7.012;2022-09-09T13:25:02;98281.16;;;22.30;100.00
19845;BME280;10083;51.038;7.012;2022-09-09T13:27:34;98195.09;;;22.03;100.00
19845;BME280;10083;51.038;7.012;2022-09-09T13:30:19;98037.84;;;21.88;100.00